Date,TemperatureHighF,TemperatureAvgF,TemperatureLowF,DewpointHighF,DewpointAvgF,DewpointLowF,HumidityHigh,HumidityAvg,HumidityLow,PressureMaxIn,PressureMinIn,WindSpeedMaxMPH,WindSpeedAvgMPH,GustSpeedMaxMPH,PrecipitationSumIn
2013-4-1,42.4,31.4,19.8,32.5,21.0,13.2,99,68,32,30.17,29.99,21,7,21,0.02
2013-4-2,55.4,37.4,17.6,27.3,19.5,13.0,98,55,21,30.20,30.11,14,4,14,0.00
2013-4-3,57.2,40.9,24.8,26.5,23.6,20.0,86,54,25,30.24,30.10,15,4,15,0.00
2013-4-4,66.9,48.4,29.7,37.8,29.7,23.4,80,52,25,30.11,29.91,17,4,17,0.00
2013-4-5,66.4,51.8,32.9,41.9,34.9,29.8,89,56,33,30.05,29.66,18,7,18,0.00
2013-4-6,71.1,61.3,53.2,48.7,41.5,35.7,66,49,29,29.67,29.49,25,9,25,0.00
2013-4-7,77.9,59.0,41.4,57.1,41.6,35.3,99,58,23,29.76,29.54,19,6,19,0.07
2013-4-8,73.0,59.9,48.0,62.3,56.4,47.8,99,89,62,29.63,29.51,17,5,19,0.31
2013-4-9,74.5,56.4,41.7,64.1,54.4,41.5,99,93,68,29.76,29.52,27,8,27,0.21
2013-4-10,43.3,41.2,39.0,43.1,40.9,38.6,99,99,96,29.86,29.61,35,6,35,0.56
2013-4-11,39.0,34.4,32.5,38.8,32.8,29.3,99,94,75,29.63,29.52,20,9,20,0.02
2013-4-12,43.0,36.0,32.9,33.7,31.2,27.8,99,83,62,29.87,29.57,17,8,17,0.00
2013-4-13,54.7,41.8,27.9,39.7,32.7,25.2,91,72,50,29.90,29.59,21,6,21,0.00
2013-4-14,70.2,55.4,44.2,54.9,44.1,34.6,82,67,49,29.60,29.29,33,11,33,0.01
2013-4-15,47.7,42.1,35.2,35.1,31.1,24.1,80,65,45,29.94,29.56,15,5,15,0.00
2013-4-16,50.9,42.4,32.4,35.5,31.8,27.8,86,67,49,30.09,29.91,20,8,20,0.00
2013-4-17,46.0,42.9,39.9,44.3,41.1,34.9,99,94,66,30.03,29.50,30,10,30,2.02
2013-4-18,40.1,35.9,32.2,39.8,34.3,29.0,99,94,84,29.73,29.49,25,11,25,0.66
2013-4-19,49.3,37.7,28.9,30.3,25.4,20.7,92,64,36,29.97,29.68,21,10,21,0.00
2013-4-20,49.6,38.9,24.1,29.6,23.7,14.6,95,58,30,30.13,29.97,17,5,17,0.00
2013-4-21,68.9,56.0,43.3,51.6,38.2,29.0,98,53,29,30.07,29.92,30,9,30,0.02
2013-4-22,69.1,51.9,35.1,52.8,46.7,33.5,99,85,44,30.02,29.80,27,7,27,0.37
2013-4-23,43.5,35.8,31.6,33.6,29.4,25.9,96,78,57,30.05,29.97,25,11,25,0.00
2013-4-24,59.2,41.5,25.2,39.2,27.7,19.7,91,63,26,30.06,29.91,29,8,29,0.01
2013-4-25,69.8,51.6,32.7,41.1,33.2,24.0,94,56,22,30.15,29.95,16,5,16,0.00
2013-4-26,66.4,57.2,47.7,51.1,45.4,39.9,95,65,53,30.08,29.95,20,8,20,0.00
2013-4-27,72.5,56.8,45.7,51.0,48.1,44.6,99,76,43,30.09,29.85,11,3,11,0.00
2013-4-28,80.6,62.2,41.4,55.5,48.8,41.1,99,68,30,29.87,29.63,18,5,18,0.00
2013-4-29,86.4,71.8,57.0,63.1,57.4,52.3,93,64,32,29.67,29.45,15,5,15,0.00
2013-4-30,85.3,73.1,59.0,64.6,56.7,49.7,81,58,40,29.73,29.45,22,8,22,0.11